KPRX/PRX METAR and TAF weather

Enter ICAO airport designator
Station Type Date Time Source
KPRX METAR 2020/01/24 08:56 UTC NOAA

KPRX 240856Z AUTO 29011KT 10SM CLR 04/01 A3003 RMK AO2 SLP187 T00440011 53005


Station Type Date Time Source
KPRX Decoded METAR 2020/01/24 08:56 UTC NOAA

Paris / Cox Field, TX, United States (KPRX) 33-38N 095-27W
Jan 24, 2020 - 03:56 AM EST / 2020.01.24 0856 UTC
Wind: from the WNW (290 degrees) at 13 MPH (11 KT):0
Visibility: 10 mile(s):0
Sky conditions: clear
Temperature: 39.9 F (4.4 C)
Dew Point: 34.0 F (1.1 C)
Relative Humidity: 79%
Pressure (altimeter): 30.03 in. Hg (1016 hPa)
Pressure tendency: 0.01 inches (0.5 hPa) higher than three hours ago
ob: KPRX 240856Z AUTO 29011KT 10SM CLR 04/01 A3003 RMK AO2 SLP187 T00440011 53005
cycle: 9

Station Type Date Time Source
KPRX TAF UTC NOAA

Error!

Example: see airport list